Change the Weather History Date:

Friday, January 18, 2013

  Actual Average Record
Temperature  
Mean Temperature 36 °F -  
Max Temperature 50 °F 27 °F 57 °F (1951)
Min Temperature 23 °F 9 °F -19 °F (1967)
Degree Days  
Heating Degree Days 28    
Moisture  
Dew Point 30 °F    
Average Humidity 76    
Maximum Humidity 94    
Minimum Humidity 51    
Precipitation  
Precipitation 0.00 in - - ()
Sea Level Pressure  
Sea Level Pressure 30.00 in    
Wind  
Wind Speed 14 mph (SW)    
Max Wind Speed 30 mph    
Max Gust Speed 38 mph    
Visibility 10 miles    
Events      
Averages and records for this station are not official NWS values.
T = Trace of Precipitation, MM = Missing Value Source: NWS Daily Summary

Daily Weather History Graph

Daily Weather History Graph

Search for Another Location

Airport or City:

Trip Planner

Search our weather history database for the weather conditions in past years. The results will help you decide how hot, cold, wet, or windy it might be!

Date:

Astronomy

Jan. 18, 2013 Rise Set
Actual Time 7:40 AM CST 5:14 PM CST
Civil Twilight 7:09 AM CST 5:45 PM CST
Nautical Twilight 6:35 AM CST 6:19 PM CST
Astronomical Twilight 6:02 AM CST 6:52 PM CST
Moon 11:11 AM CST (1/18) 12:12 AM CST (1/18)
Length of Visible Light 10h 35m
Length of Day
9h 34m
Waxing Crescent, 47% of the Moon is Illuminated
Jan 18
Waxing Crescent
Jan 18
First Quarter
Jan 26
Full
Feb 3
Last Quarter
Feb 10
New

Hourly Weather History & Observations

Time (CST) Temp. Windchill Dew Point Humidity Pressure Visibility Wind Dir Wind Speed Gust Speed Precip Events Conditions
12:15 AM 23.4 °F 13.5 °F 21.9 °F 94% 30.29 in 10.0 mi SSE 9.2 mph - N/A   Clear
12:35 AM 24.8 °F 15.3 °F 23.2 °F 94% 30.28 in 10.0 mi South 9.2 mph - N/A   Clear
12:55 AM 25.2 °F 15.7 °F 23.5 °F 94% 30.28 in 10.0 mi South 9.2 mph - N/A   Clear
1:15 AM 25.7 °F 19.0 °F 23.9 °F 93% 30.27 in 7.0 mi South 5.8 mph - N/A   Clear
1:35 AM 26.6 °F 16.8 °F 24.6 °F 92% 30.26 in 10.0 mi South 10.4 mph - N/A   Clear
1:55 AM 27.3 °F 16.6 °F 25.2 °F 92% 30.25 in 10.0 mi South 12.7 mph - N/A   Clear
2:15 AM 28.4 °F 17.0 °F 25.5 °F 89% 30.24 in 10.0 mi South 15.0 mph - N/A   Clear
2:35 AM 29.1 °F 18.4 °F 25.7 °F 87% 30.23 in 10.0 mi South 13.8 mph - N/A   Clear
2:55 AM 29.3 °F 19.1 °F 25.5 °F 86% 30.22 in 10.0 mi South 12.7 mph - N/A   Clear
3:15 AM 30.2 °F 20.2 °F 25.9 °F 84% 30.22 in 10.0 mi South 12.7 mph - N/A   Clear
3:35 AM 29.1 °F 19.4 °F 25.7 °F 87% 30.21 in 10.0 mi South 11.5 mph - N/A   Clear
3:55 AM 28.9 °F 18.6 °F 25.9 °F 88% 30.18 in 10.0 mi South 12.7 mph - N/A   Clear
4:15 AM 29.3 °F 20.2 °F 26.1 °F 88% 30.17 in 10.0 mi South 10.4 mph - N/A   Clear
4:35 AM 29.3 °F 19.6 °F 26.4 °F 89% 30.16 in 10.0 mi South 11.5 mph - N/A   Clear
4:55 AM 29.3 °F 19.6 °F 26.4 °F 89% 30.15 in 10.0 mi South 11.5 mph - N/A   Clear
5:15 AM 30.2 °F 20.2 °F 27.1 °F 88% 30.13 in 10.0 mi South 12.7 mph - N/A   Clear
5:35 AM 30.7 °F 20.9 °F 27.5 °F 88% 30.11 in 10.0 mi SSW 12.7 mph - N/A   Clear
5:55 AM 30.9 °F 21.2 °F 27.5 °F 87% 30.10 in 10.0 mi SSW 12.7 mph - N/A   Clear
6:15 AM 31.1 °F 20.5 °F 27.5 °F 87% 30.09 in 10.0 mi SSW 15.0 mph - N/A   Clear
6:35 AM 31.5 °F 20.9 °F 27.9 °F 87% 30.08 in 10.0 mi SSW 15.0 mph - N/A   Clear
6:55 AM 31.8 °F 20.6 °F 28.0 °F 86% 30.08 in 10.0 mi SSW 17.3 mph - N/A   Clear
7:15 AM 32.0 °F 20.8 °F 28.2 °F 86% 30.07 in 10.0 mi SSW 17.3 mph - N/A   Clear
7:35 AM 32.0 °F 21.2 °F 28.2 °F 86% 30.06 in 10.0 mi SSW 16.1 mph - N/A   Clear
7:55 AM 32.0 °F 20.8 °F 28.4 °F 87% 30.06 in 10.0 mi SSW 17.3 mph - N/A   Clear
8:15 AM 32.9 °F 21.6 °F 28.9 °F 85% 30.04 in 10.0 mi SSW 18.4 mph - N/A   Clear
8:35 AM 33.6 °F 22.6 °F 29.7 °F 85% 30.03 in 10.0 mi SSW 18.4 mph - N/A   Clear
8:55 AM 35.1 °F 24.5 °F 30.2 °F 82% 30.03 in 10.0 mi SSW 18.4 mph - N/A   Clear
9:15 AM 36.0 °F 25.6 °F 30.6 °F 81% 30.02 in 10.0 mi SSW 18.4 mph - N/A   Clear
9:35 AM 37.4 °F 27.8 °F 31.1 °F 78% 30.02 in 10.0 mi SSW 17.3 mph - N/A   Clear
9:55 AM 39.0 °F 30.6 °F 31.8 °F 75% 30.02 in 10.0 mi SSW 15.0 mph - N/A   Clear
10:15 AM 41.5 °F 31.6 °F 31.8 °F 68% 30.00 in 10.0 mi SW 24.2 mph 31.1 mph N/A   Clear
10:35 AM 43.0 °F 32.9 °F 31.8 °F 65% 29.99 in 10.0 mi SW 27.6 mph 34.5 mph N/A   Clear
10:55 AM 43.7 °F 34.1 °F 31.8 °F 63% 29.96 in 10.0 mi SW 26.5 mph 34.5 mph N/A   Clear
11:15 AM 44.2 °F 35.0 °F 32.0 °F 62% 29.95 in 10.0 mi SW 25.3 mph 34.5 mph N/A   Clear
11:35 AM 44.8 °F 35.0 °F 32.0 °F 61% 29.94 in 10.0 mi SW 29.9 mph 38.0 mph N/A   Clear
11:55 AM 45.9 °F 37.8 °F 32.4 °F 59% 29.95 in 10.0 mi WSW 21.9 mph 31.1 mph N/A   Clear
12:15 PM 46.4 °F 37.9 °F 32.5 °F 59% 29.94 in 10.0 mi WSW 25.3 mph 34.5 mph N/A   Clear
12:35 PM 46.9 °F - 32.9 °F 58% 29.92 in 10.0 mi SW 26.5 mph 32.2 mph N/A   Clear
12:55 PM 47.5 °F - 33.3 °F 58% 29.90 in 10.0 mi SW 20.7 mph 31.1 mph N/A   Clear
1:15 PM 48.2 °F - 33.1 °F 56% 29.87 in 10.0 mi SW 29.9 mph - N/A   Clear
1:35 PM 48.6 °F - 33.8 °F 57% 29.89 in 10.0 mi WSW 23.0 mph 34.5 mph N/A   Clear
1:55 PM 49.3 °F - 34.0 °F 56% 29.88 in 10.0 mi SW 21.9 mph 28.8 mph N/A   Clear
2:15 PM 50.0 °F - 33.4 °F 53% 29.87 in 10.0 mi SW 23.0 mph 29.9 mph N/A   Clear
2:35 PM 50.5 °F - 34.0 °F 53% 29.87 in 10.0 mi SW 21.9 mph 26.5 mph N/A   Clear
2:55 PM 50.5 °F - 33.1 °F 51% 29.87 in 10.0 mi WSW 25.3 mph 29.9 mph N/A   Clear
3:15 PM 50.4 °F - 32.7 °F 51% 29.87 in 10.0 mi SW 19.6 mph 26.5 mph N/A   Clear
3:35 PM 50.0 °F - 33.4 °F 53% 29.87 in 10.0 mi WSW 17.3 mph 24.2 mph N/A   Clear
3:55 PM 49.3 °F - 33.3 °F 54% 29.87 in 10.0 mi WSW 18.4 mph - N/A   Clear
4:15 PM 48.6 °F - 32.9 °F 55% 29.87 in 10.0 mi WSW 16.1 mph 23.0 mph N/A   Clear
4:35 PM 47.3 °F - 33.1 °F 58% 29.88 in 10.0 mi WSW 10.4 mph - N/A   Clear
4:55 PM 44.8 °F 37.7 °F 33.1 °F 64% 29.88 in 10.0 mi WSW 16.1 mph - N/A   Clear
5:15 PM 43.2 °F 37.0 °F 32.4 °F 66% 29.89 in 10.0 mi WSW 11.5 mph - N/A   Clear
5:35 PM 40.3 °F 34.9 °F 32.0 °F 72% 29.90 in 10.0 mi WSW 8.1 mph - N/A   Clear
5:55 PM 38.5 °F 32.7 °F 31.3 °F 75% 29.91 in 10.0 mi WSW 8.1 mph - N/A   Clear
6:15 PM 39.2 °F 32.0 °F 32.0 °F 75% 29.90 in 10.0 mi WSW 11.5 mph - N/A   Clear
6:35 PM 38.3 °F 31.4 °F 31.8 °F 77% 29.90 in 10.0 mi WSW 10.4 mph - N/A   Clear
6:55 PM 36.5 °F 28.7 °F 31.1 °F 81% 29.91 in 10.0 mi WSW 11.5 mph - N/A   Clear
7:15 PM 36.7 °F 28.9 °F 31.5 °F 81% 29.90 in 10.0 mi WSW 11.5 mph - N/A   Clear
7:35 PM 37.6 °F 30.0 °F 31.8 °F 80% 29.90 in 10.0 mi WSW 11.5 mph - N/A   Clear
7:55 PM 38.8 °F 30.0 °F 32.0 °F 76% 29.90 in 10.0 mi WSW 16.1 mph - N/A   Clear
8:15 PM 39.4 °F 30.7 °F 32.0 °F 75% 29.90 in 10.0 mi SW 16.1 mph - N/A   Clear
8:35 PM 38.7 °F 29.8 °F 31.8 °F 76% 29.89 in 10.0 mi WSW 16.1 mph - N/A   Clear
8:55 PM 38.8 °F 30.4 °F 31.8 °F 76% 29.89 in 10.0 mi SW 15.0 mph - N/A   Clear
9:35 PM 36.5 °F 29.7 °F 31.5 °F 82% 29.89 in 10.0 mi SW 9.2 mph - N/A   Clear
9:55 PM 36.1 °F 29.3 °F 31.1 °F 82% 29.89 in 10.0 mi WSW 9.2 mph - N/A   Clear
10:15 PM 35.1 °F 27.4 °F 31.1 °F 85% 29.88 in 10.0 mi SW 10.4 mph - N/A   Clear
10:35 PM 34.7 °F 28.1 °F 30.6 °F 85% 29.88 in 10.0 mi WSW 8.1 mph - N/A   Clear
10:55 PM 34.5 °F 28.6 °F 30.7 °F 86% 29.87 in 10.0 mi SW 6.9 mph - N/A   Clear
11:15 PM 35.6 °F 27.1 °F 31.1 °F 84% 29.86 in 10.0 mi SW 12.7 mph - N/A   Clear
11:35 PM 35.8 °F 28.3 °F 30.9 °F 82% 29.86 in 10.0 mi SW 10.4 mph - N/A   Clear
11:55 PM 35.2 °F 27.6 °F 30.9 °F 84% 29.85 in 10.0 mi SW 10.4 mph - N/A   Clear